Time,TemperatureF,DewpointF,PressureIn,WindDirection,WindDirectionDegrees,WindSpeedMPH,WindSpeedGustMPH,Humidity,HourlyPrecipIn,Conditions,Clouds,dailyrainin,SoftwareType,DateUTC
2013-04-01 00:03:00,43.0,39.0,29.70,SSW,207,3.0,9.0,87,0.00,,,0.03,,2013-04-01 04:03:00,
2013-04-01 00:14:00,43.0,39.0,29.70,SSW,207,3.0,9.0,87,0.00,,,0.03,,2013-04-01 04:14:00,
2013-04-01 00:24:00,43.0,39.0,29.69,SW,217,1.0,7.0,87,0.00,,,0.03,,2013-04-01 04:24:00,
2013-04-01 00:33:00,43.0,39.0,29.69,SW,217,1.0,7.0,87,0.00,,,0.03,,2013-04-01 04:33:00,
2013-04-01 00:43:00,43.0,39.0,29.69,SW,217,1.0,7.0,87,0.00,,,0.03,,2013-04-01 04:43:00,
2013-04-01 00:53:00,43.0,39.0,29.68,SSW,211,4.0,9.0,86,0.00,,,0.03,,2013-04-01 04:53:00,
2013-04-01 01:03:00,43.0,39.0,29.67,SW,234,3.0,9.0,86,0.00,,,0.03,,2013-04-01 05:03:00,
2013-04-01 01:13:00,43.0,39.0,29.67,SW,234,3.0,9.0,86,0.00,,,0.03,,2013-04-01 05:13:00,
2013-04-01 01:22:00,43.0,39.0,29.67,SSW,207,3.0,9.0,86,0.00,,,0.03,,2013-04-01 05:22:00,
2013-04-01 01:32:00,43.0,39.0,29.67,SSW,213,2.0,8.0,86,0.00,,,0.03,,2013-04-01 05:32:00,
2013-04-01 01:43:00,43.0,39.0,29.67,SSW,213,2.0,8.0,86,0.00,,,0.03,,2013-04-01 05:43:00,
2013-04-01 01:52:00,43.0,39.0,29.66,SW,224,2.0,8.0,86,0.00,,,0.03,,2013-04-01 05:52:00,
2013-04-01 02:02:00,43.0,39.0,29.65,SSW,200,1.0,6.0,87,0.00,,,0.03,,2013-04-01 06:02:00,
2013-04-01 02:13:00,43.0,39.0,29.65,SSW,200,1.0,6.0,87,0.00,,,0.03,,2013-04-01 06:13:00,
2013-04-01 02:23:00,43.0,39.0,29.64,SSW,208,1.0,7.0,87,0.00,,,0.03,,2013-04-01 06:23:00,
2013-04-01 02:33:00,43.0,39.0,29.63,SSW,199,2.0,8.0,87,0.00,,,0.03,,2013-04-01 06:33:00,
2013-04-01 02:43:00,43.0,39.0,29.63,SSW,199,2.0,8.0,87,0.00,,,0.03,,2013-04-01 06:43:00,
2013-04-01 02:52:00,44.0,40.0,29.64,SSW,209,4.0,12.0,85,0.00,,,0.03,,2013-04-01 06:52:00,
2013-04-01 03:03:00,44.0,40.0,29.64,WSW,248,4.0,12.0,85,0.00,,,0.03,,2013-04-01 07:03:00,
2013-04-01 03:13:00,44.0,40.0,29.64,WSW,248,4.0,12.0,85,0.00,,,0.03,,2013-04-01 07:13:00,
2013-04-01 03:22:00,45.0,40.0,29.64,SSW,211,5.0,10.0,83,0.00,,,0.03,,2013-04-01 07:22:00,
2013-04-01 03:32:00,45.0,40.0,29.64,WSW,258,5.0,9.0,82,0.00,,,0.03,,2013-04-01 07:32:00,
2013-04-01 03:42:00,45.0,40.0,29.64,WSW,258,5.0,9.0,82,0.00,,,0.03,,2013-04-01 07:42:00,
2013-04-01 03:52:00,45.0,40.0,29.64,SW,216,2.0,9.0,83,0.00,,,0.03,,2013-04-01 07:52:00,
2013-04-01 04:03:00,45.0,40.0,29.64,SW,218,2.0,8.0,83,0.00,,,0.03,,2013-04-01 08:03:00,
2013-04-01 04:12:00,45.0,40.0,29.64,SW,218,2.0,8.0,83,0.00,,,0.03,,2013-04-01 08:12:00,
2013-04-01 04:22:00,45.0,40.0,29.64,West,261,3.0,7.0,83,0.00,,,0.03,,2013-04-01 08:22:00,
2013-04-01 04:32:00,44.0,39.0,29.64,WNW,286,3.0,8.0,84,0.00,,,0.03,,2013-04-01 08:32:00,
2013-04-01 04:43:00,44.0,39.0,29.64,WNW,286,3.0,8.0,84,0.00,,,0.03,,2013-04-01 08:43:00,
2013-04-01 04:52:00,44.0,39.0,29.65,NW,315,2.0,12.0,84,0.00,,,0.03,,2013-04-01 08:52:00,
2013-04-01 05:02:00,43.0,38.0,29.65,WNW,286,3.0,12.0,81,0.00,,,0.03,,2013-04-01 09:02:00,
2013-04-01 05:12:00,43.0,38.0,29.65,WNW,286,3.0,12.0,81,0.00,,,0.03,,2013-04-01 09:12:00,
2013-04-01 05:23:00,43.0,38.0,29.65,West,274,4.0,9.0,82,0.00,,,0.03,,2013-04-01 09:23:00,
2013-04-01 05:33:00,43.0,38.0,29.65,WSW,250,2.0,10.0,83,0.00,,,0.03,,2013-04-01 09:33:00,
2013-04-01 05:43:00,43.0,38.0,29.65,WSW,250,2.0,10.0,83,0.00,,,0.03,,2013-04-01 09:43:00,
2013-04-01 05:53:00,43.0,38.0,29.65,WSW,239,4.0,11.0,84,0.00,,,0.03,,2013-04-01 09:53:00,
2013-04-01 06:03:00,43.0,38.0,29.65,West,276,5.0,9.0,84,0.00,,,0.03,,2013-04-01 10:03:00,
2013-04-01 06:13:00,43.0,38.0,29.65,West,276,5.0,9.0,84,0.00,,,0.03,,2013-04-01 10:13:00,
2013-04-01 06:23:00,42.0,38.0,29.66,WSW,246,3.0,8.0,85,0.00,,,0.03,,2013-04-01 10:23:00,
2013-04-01 06:33:00,42.0,38.0,29.66,West,278,4.0,12.0,84,0.00,,,0.03,,2013-04-01 10:33:00,
2013-04-01 06:42:00,42.0,38.0,29.66,West,278,4.0,12.0,84,0.00,,,0.03,,2013-04-01 10:42:00,
2013-04-01 06:53:00,42.0,38.0,29.66,West,279,4.0,10.0,84,0.00,,,0.03,,2013-04-01 10:53:00,
2013-04-01 07:03:00,42.0,37.0,29.67,WNW,294,7.0,17.0,83,0.00,,,0.03,,2013-04-01 11:03:00,
2013-04-01 07:13:00,42.0,37.0,29.67,WNW,294,7.0,17.0,83,0.00,,,0.03,,2013-04-01 11:13:00,
2013-04-01 07:23:00,41.0,36.0,29.67,SSW,202,10.0,21.0,83,0.00,,,0.03,,2013-04-01 11:23:00,
2013-04-01 07:33:00,41.0,36.0,29.68,WSW,245,7.0,17.0,83,0.00,,,0.03,,2013-04-01 11:33:00,
2013-04-01 07:43:00,41.0,36.0,29.68,WSW,245,7.0,17.0,83,0.00,,,0.03,,2013-04-01 11:43:00,
2013-04-01 07:52:00,41.0,35.0,29.70,NW,318,15.0,31.0,79,0.00,,,0.03,,2013-04-01 11:52:00,
2013-04-01 08:03:00,35.0,32.0,29.72,NNW,333,8.0,27.0,87,0.00,,,0.03,,2013-04-01 12:03:00,
2013-04-01 08:12:00,35.0,32.0,29.72,NNW,333,8.0,27.0,87,0.00,,,0.03,,2013-04-01 12:12:00,
2013-04-01 08:23:00,34.0,31.0,29.72,WNW,286,5.0,21.0,90,0.00,,,0.03,,2013-04-01 12:23:00,
2013-04-01 08:32:00,34.0,32.0,29.73,NW,311,7.0,16.0,92,0.02,,,0.05,,2013-04-01 12:32:00,
2013-04-01 08:42:00,34.0,32.0,29.73,NW,311,7.0,16.0,92,0.02,,,0.05,,2013-04-01 12:42:00,
2013-04-01 08:52:00,34.0,32.0,29.75,WNW,290,7.0,18.0,92,0.02,,,0.05,,2013-04-01 12:52:00,
2013-04-01 09:03:00,33.0,31.0,29.76,NW,306,10.0,19.0,91,0.02,,,0.05,,2013-04-01 13:03:00,
2013-04-01 09:12:00,33.0,31.0,29.76,NW,306,10.0,19.0,91,0.02,,,0.05,,2013-04-01 13:12:00,
2013-04-01 09:22:00,33.0,31.0,29.76,NNW,328,8.0,14.0,92,0.03,,,0.06,,2013-04-01 13:22:00,
2013-04-01 09:33:00,34.0,32.0,29.77,West,279,9.0,20.0,91,0.01,,,0.06,,2013-04-01 13:33:00,
2013-04-01 09:42:00,34.0,32.0,29.77,West,279,9.0,20.0,91,0.01,,,0.06,,2013-04-01 13:42:00,
2013-04-01 09:52:00,34.0,31.0,29.78,WSW,256,10.0,18.0,88,0.02,,,0.07,,2013-04-01 13:52:00,
2013-04-01 10:04:00,34.0,29.0,29.79,West,272,8.0,25.0,82,0.02,,,0.07,,2013-04-01 14:04:00,
2013-04-01 10:12:00,34.0,29.0,29.79,West,272,8.0,25.0,82,0.02,,,0.07,,2013-04-01 14:12:00,
2013-04-01 10:22:00,35.0,27.0,29.80,NNW,329,12.0,25.0,72,0.01,,,0.07,,2013-04-01 14:22:00,
2013-04-01 10:33:00,36.0,26.0,29.81,WNW,289,11.0,25.0,67,0.01,,,0.07,,2013-04-01 14:33:00,
2013-04-01 10:42:00,36.0,26.0,29.81,WNW,289,11.0,25.0,67,0.01,,,0.07,,2013-04-01 14:42:00,
2013-04-01 10:52:00,36.0,25.0,29.80,NW,317,10.0,20.0,65,0.00,,,0.07,,2013-04-01 14:52:00,
2013-04-01 11:03:00,36.0,25.0,29.81,WSW,254,12.0,25.0,63,0.00,,,0.07,,2013-04-01 15:03:00,
2013-04-01 11:13:00,36.0,25.0,29.81,WSW,254,12.0,25.0,63,0.00,,,0.07,,2013-04-01 15:13:00,
2013-04-01 11:23:00,36.0,24.0,29.82,NW,316,11.0,24.0,62,0.00,,,0.07,,2013-04-01 15:23:00,
2013-04-01 11:34:00,36.0,23.0,29.83,WNW,297,14.0,26.0,59,0.00,,,0.07,,2013-04-01 15:34:00,
2013-04-01 11:43:00,36.0,23.0,29.83,WNW,297,14.0,26.0,59,0.00,,,0.07,,2013-04-01 15:43:00,
2013-04-01 11:53:00,37.0,21.0,29.83,West,266,13.0,24.0,53,0.00,,,0.07,,2013-04-01 15:53:00,
2013-04-01 12:03:00,37.0,20.0,29.83,WNW,285,13.0,29.0,50,0.00,,,0.07,,2013-04-01 16:03:00,
2013-04-01 12:13:00,37.0,20.0,29.83,WNW,285,13.0,29.0,50,0.00,,,0.07,,2013-04-01 16:13:00,
2013-04-01 12:23:00,37.0,21.0,29.85,WNW,301,8.0,23.0,53,0.00,,,0.07,,2013-04-01 16:23:00,
2013-04-01 12:33:00,36.0,18.0,29.85,West,278,12.0,29.0,47,0.00,,,0.07,,2013-04-01 16:33:00,
2013-04-01 12:43:00,36.0,18.0,29.85,West,278,12.0,29.0,47,0.00,,,0.07,,2013-04-01 16:43:00,
2013-04-01 12:52:00,36.0,17.0,29.86,West,271,14.0,28.0,46,0.00,,,0.07,,2013-04-01 16:52:00,
2013-04-01 13:03:00,36.0,16.0,29.87,WSW,244,13.0,27.0,43,0.00,,,0.07,,2013-04-01 17:03:00,
2013-04-01 13:13:00,36.0,16.0,29.87,WSW,244,13.0,27.0,43,0.00,,,0.07,,2013-04-01 17:13:00,
2013-04-01 13:23:00,37.0,18.0,29.86,West,259,6.0,28.0,46,0.00,,,0.07,,2013-04-01 17:23:00,
2013-04-01 13:32:00,37.0,18.0,29.86,West,259,6.0,28.0,46,0.00,,,0.07,,2013-04-01 17:32:00,
2013-04-01 13:42:00,37.0,18.0,29.86,West,259,6.0,28.0,46,0.00,,,0.07,,2013-04-01 17:42:00,
2013-04-01 13:52:00,38.0,15.0,29.88,WSW,250,12.0,24.0,39,0.00,,,0.07,,2013-04-01 17:52:00,
2013-04-01 14:03:00,39.0,16.0,29.88,WNW,295,15.0,28.0,38,0.00,,,0.07,,2013-04-01 18:03:00,
2013-04-01 14:12:00,39.0,16.0,29.88,WNW,295,15.0,28.0,38,0.00,,,0.07,,2013-04-01 18:12:00,
2013-04-01 14:22:00,37.0,16.0,29.88,NW,316,11.0,25.0,42,0.00,,,0.07,,2013-04-01 18:22:00,
2013-04-01 14:33:00,37.0,14.0,29.88,NW,308,9.0,31.0,39,0.00,,,0.07,,2013-04-01 18:33:00,
2013-04-01 14:43:00,37.0,14.0,29.88,NW,308,9.0,31.0,39,0.00,,,0.07,,2013-04-01 18:43:00,
2013-04-01 14:52:00,37.0,15.0,29.89,WNW,301,12.0,29.0,40,0.00,,,0.07,,2013-04-01 18:52:00,
2013-04-01 15:04:00,37.0,16.0,29.89,NW,304,16.0,28.0,41,0.00,,,0.07,,2013-04-01 19:04:00,
2013-04-01 15:13:00,37.0,16.0,29.89,NW,304,16.0,28.0,41,0.00,,,0.07,,2013-04-01 19:13:00,
2013-04-01 15:23:00,39.0,16.0,29.90,WNW,290,14.0,30.0,39,0.00,,,0.07,,2013-04-01 19:23:00,
2013-04-01 15:32:00,37.0,15.0,29.90,NW,311,13.0,24.0,40,0.00,,,0.07,,2013-04-01 19:32:00,
2013-04-01 15:42:00,37.0,15.0,29.90,NW,311,13.0,24.0,40,0.00,,,0.07,,2013-04-01 19:42:00,
2013-04-01 15:53:00,37.0,15.0,29.91,NNW,340,15.0,35.0,40,0.00,,,0.07,,2013-04-01 19:53:00,
2013-04-01 16:02:00,37.0,16.0,29.91,NW,324,7.0,25.0,41,0.00,,,0.07,,2013-04-01 20:02:00,
2013-04-01 16:13:00,37.0,16.0,29.91,NW,324,7.0,25.0,41,0.00,,,0.07,,2013-04-01 20:13:00,
2013-04-01 16:23:00,37.0,16.0,29.92,WNW,288,12.0,37.0,41,0.00,,,0.07,,2013-04-01 20:23:00,
2013-04-01 16:33:00,37.0,16.0,29.93,NW,315,9.0,28.0,42,0.00,,,0.07,,2013-04-01 20:33:00,
2013-04-01 16:43:00,37.0,16.0,29.93,NW,315,9.0,28.0,42,0.00,,,0.07,,2013-04-01 20:43:00,
2013-04-01 16:52:00,36.0,18.0,29.94,WNW,296,14.0,24.0,48,0.00,,,0.07,,2013-04-01 20:52:00,
2013-04-01 17:03:00,36.0,17.0,29.94,WNW,302,9.0,25.0,45,0.00,,,0.07,,2013-04-01 21:03:00,
2013-04-01 17:12:00,36.0,17.0,29.94,WNW,302,9.0,25.0,45,0.00,,,0.07,,2013-04-01 21:12:00,
2013-04-01 17:23:00,35.0,18.0,29.95,NW,314,17.0,30.0,50,0.00,,,0.07,,2013-04-01 21:23:00,
2013-04-01 17:33:00,35.0,17.0,29.96,NW,325,14.0,28.0,47,0.00,,,0.06,,2013-04-01 21:33:00,
2013-04-01 17:43:00,35.0,17.0,29.96,NW,325,14.0,28.0,47,0.00,,,0.06,,2013-04-01 21:43:00,
2013-04-01 17:52:00,34.0,17.0,29.97,West,277,10.0,24.0,50,0.00,,,0.06,,2013-04-01 21:52:00,
2013-04-01 18:03:00,34.0,16.0,29.97,NW,316,15.0,33.0,48,0.00,,,0.06,,2013-04-01 22:03:00,
2013-04-01 18:13:00,34.0,16.0,29.97,NW,316,15.0,33.0,48,0.00,,,0.06,,2013-04-01 22:13:00,
2013-04-01 18:23:00,33.0,16.0,29.98,NW,306,12.0,29.0,50,0.00,,,0.06,,2013-04-01 22:23:00,
2013-04-01 18:33:00,33.0,16.0,29.98,NW,309,12.0,26.0,49,0.00,,,0.05,,2013-04-01 22:33:00,
2013-04-01 18:43:00,33.0,16.0,29.98,NW,309,12.0,26.0,49,0.00,,,0.05,,2013-04-01 22:43:00,
2013-04-01 18:52:00,33.0,18.0,29.98,NW,305,10.0,23.0,54,0.00,,,0.05,,2013-04-01 22:52:00,
2013-04-01 19:02:00,33.0,18.0,29.99,NNW,346,6.0,22.0,54,0.00,,,0.05,,2013-04-01 23:02:00,
2013-04-01 19:12:00,33.0,18.0,29.99,NNW,346,6.0,22.0,54,0.00,,,0.05,,2013-04-01 23:12:00,
2013-04-01 19:23:00,32.0,15.0,29.99,NW,305,11.0,19.0,50,0.00,,,0.05,,2013-04-01 23:23:00,
2013-04-01 19:32:00,32.0,15.0,29.99,WNW,298,8.0,20.0,48,0.00,,,0.04,,2013-04-01 23:32:00,
2013-04-01 19:43:00,32.0,15.0,29.99,WNW,298,8.0,20.0,48,0.00,,,0.04,,2013-04-01 23:43:00,
2013-04-01 19:52:00,32.0,14.0,29.99,WNW,288,6.0,17.0,47,0.00,,,0.04,,2013-04-01 23:52:00,
2013-04-01 20:03:00,32.0,14.0,29.99,WNW,301,10.0,21.0,47,0.00,,,0.04,,2013-04-02 00:03:00,
2013-04-01 20:12:00,32.0,14.0,29.99,WNW,301,10.0,21.0,47,0.00,,,0.04,,2013-04-02 00:12:00,
2013-04-01 20:22:00,32.0,14.0,29.99,WNW,301,10.0,21.0,47,0.00,,,0.04,,2013-04-02 00:22:00,
2013-04-01 20:33:00,31.0,18.0,30.01,WNW,289,6.0,18.0,58,0.00,,,0.04,,2013-04-02 00:33:00,
2013-04-01 20:43:00,31.0,18.0,30.01,WNW,289,6.0,18.0,58,0.00,,,0.04,,2013-04-02 00:43:00,
2013-04-01 20:53:00,30.0,19.0,30.01,NW,323,6.0,18.0,63,0.00,,,0.04,,2013-04-02 00:53:00,
2013-04-01 21:02:00,30.0,21.0,30.01,WSW,251,3.0,13.0,68,0.00,,,0.04,,2013-04-02 01:02:00,
2013-04-01 21:12:00,30.0,21.0,30.01,WSW,251,3.0,13.0,68,0.00,,,0.04,,2013-04-02 01:12:00,
2013-04-01 21:22:00,29.0,21.0,30.01,West,277,2.0,12.0,71,0.00,,,0.04,,2013-04-02 01:22:00,
2013-04-01 21:32:00,29.0,21.0,30.02,WSW,243,6.0,12.0,73,0.00,,,0.04,,2013-04-02 01:32:00,
2013-04-01 21:43:00,29.0,21.0,30.02,WSW,243,6.0,12.0,73,0.00,,,0.04,,2013-04-02 01:43:00,
2013-04-01 21:52:00,29.0,21.0,30.02,West,265,7.0,15.0,73,0.00,,,0.04,,2013-04-02 01:52:00,
2013-04-01 22:03:00,29.0,22.0,30.02,WNW,296,5.0,15.0,74,0.00,,,0.04,,2013-04-02 02:03:00,
2013-04-01 22:12:00,29.0,22.0,30.02,WNW,296,5.0,15.0,74,0.00,,,0.04,,2013-04-02 02:12:00,
2013-04-01 22:22:00,28.0,21.0,30.02,WNW,292,7.0,17.0,75,0.00,,,0.04,,2013-04-02 02:22:00,
2013-04-01 22:32:00,28.0,21.0,30.02,WNW,294,3.0,15.0,76,0.00,,,0.04,,2013-04-02 02:32:00,
2013-04-01 22:42:00,28.0,21.0,30.02,WNW,294,3.0,15.0,76,0.00,,,0.04,,2013-04-02 02:42:00,
2013-04-01 22:52:00,28.0,21.0,30.02,WNW,302,2.0,14.0,75,0.00,,,0.04,,2013-04-02 02:52:00,
2013-04-01 23:02:00,28.0,21.0,30.02,WNW,293,7.0,15.0,75,0.00,,,0.04,,2013-04-02 03:02:00,
2013-04-01 23:13:00,28.0,21.0,30.02,WNW,293,7.0,15.0,75,0.00,,,0.04,,2013-04-02 03:13:00,
2013-04-01 23:22:00,28.0,22.0,30.02,NW,304,5.0,12.0,77,0.00,,,0.04,,2013-04-02 03:22:00,
2013-04-01 23:33:00,28.0,22.0,30.02,NW,306,6.0,13.0,77,0.00,,,0.04,,2013-04-02 03:33:00,
2013-04-01 23:43:00,28.0,22.0,30.02,NW,306,6.0,13.0,77,0.00,,,0.04,,2013-04-02 03:43:00,